createdAt,value
2022-11-21T00:01:25.315Z,23.46
2022-11-21T00:03:53.028Z,23.48
2022-11-21T00:06:20.989Z,23.47
2022-11-21T00:08:48.659Z,23.44
2022-11-21T00:11:16.526Z,23.49
2022-11-21T00:13:44.212Z,23.44
2022-11-21T00:16:14.621Z,23.51
2022-11-21T00:18:44.121Z,23.40
2022-11-21T00:21:14.625Z,23.43
2022-11-21T00:23:43.081Z,23.39
2022-11-21T00:26:11.931Z,23.44
2022-11-21T00:28:39.672Z,23.38
2022-11-21T00:31:07.520Z,23.43
2022-11-21T00:33:36.797Z,23.42
2022-11-21T00:36:10.974Z,23.42
2022-11-21T00:38:38.464Z,23.38
2022-11-21T00:41:06.495Z,23.38
2022-11-21T00:43:34.214Z,23.35
2022-11-21T00:46:03.061Z,23.36
2022-11-21T00:48:32.123Z,23.33
2022-11-21T00:51:00.676Z,23.39
2022-11-21T00:53:29.732Z,23.37
2022-11-21T00:55:57.886Z,23.35
2022-11-21T00:58:25.961Z,23.33
2022-11-21T01:00:53.733Z,23.36
2022-11-21T01:03:21.491Z,23.37
2022-11-21T01:05:48.968Z,23.32
2022-11-21T01:08:16.439Z,23.35
2022-11-21T01:10:43.969Z,23.39
2022-11-21T01:13:11.388Z,23.32
2022-11-21T01:15:38.802Z,23.29
2022-11-21T01:18:06.246Z,23.31
2022-11-21T01:20:33.665Z,23.31
2022-11-21T01:23:01.241Z,23.29
2022-11-21T01:25:28.683Z,23.29
2022-11-21T01:27:56.155Z,23.33
2022-11-21T01:30:23.575Z,23.31
2022-11-21T01:32:51.063Z,23.30
2022-11-21T01:35:18.876Z,23.29
2022-11-21T01:37:49.649Z,23.27
2022-11-21T01:40:17.183Z,23.26
2022-11-21T01:42:50.324Z,23.30
2022-11-21T01:46:01.167Z,23.29
2022-11-21T01:48:44.973Z,23.27
2022-11-21T01:51:28.173Z,23.30
2022-11-21T01:54:02.720Z,23.27
2022-11-21T01:56:35.775Z,23.25
2022-11-21T01:59:04.931Z,23.26
2022-11-21T02:01:35.181Z,23.24
2022-11-21T02:04:04.344Z,23.26
2022-11-21T02:06:33.611Z,23.26
2022-11-21T02:09:01.540Z,23.26
2022-11-21T02:11:52.218Z,23.23
2022-11-21T02:14:19.742Z,23.21
2022-11-21T02:16:47.634Z,23.23
2022-11-21T02:19:49.585Z,23.22
2022-11-21T02:22:42.243Z,23.27
2022-11-21T02:25:15.497Z,23.23
2022-11-21T02:27:42.916Z,23.29
2022-11-21T02:30:11.315Z,23.21
2022-11-21T02:32:47.453Z,23.20
2022-11-21T02:35:17.709Z,23.19
2022-11-21T02:37:48.408Z,23.24
2022-11-21T02:40:27.895Z,23.19
2022-11-21T02:43:06.444Z,23.22
2022-11-21T02:45:39.342Z,23.27
2022-11-21T02:48:07.563Z,23.23
2022-11-21T02:50:37.500Z,23.17
2022-11-21T02:53:07.688Z,23.15
2022-11-21T02:55:35.186Z,23.14
2022-11-21T02:58:05.141Z,23.25
2022-11-21T03:00:37.142Z,23.17
2022-11-21T03:03:05.195Z,23.18
2022-11-21T03:05:33.057Z,23.17
2022-11-21T03:08:00.670Z,23.16
2022-11-21T03:10:28.175Z,23.13
2022-11-21T03:13:01.071Z,23.13
2022-11-21T03:15:31.791Z,23.14
2022-11-21T03:18:01.286Z,23.18
2022-11-21T03:20:34.391Z,23.15
2022-11-21T03:23:02.107Z,23.16
2022-11-21T03:25:29.647Z,23.16
2022-11-21T03:27:57.176Z,23.12
2022-11-21T03:30:26.125Z,23.16
2022-11-21T03:32:57.784Z,23.12
2022-11-21T03:35:26.359Z,23.12
2022-11-21T03:37:53.833Z,23.12
2022-11-21T03:40:21.287Z,23.17
2022-11-21T03:42:48.804Z,23.12
2022-11-21T03:45:16.322Z,23.10
2022-11-21T03:47:43.755Z,23.08
2022-11-21T03:50:12.086Z,23.07
2022-11-21T03:52:39.486Z,23.06
2022-11-21T03:55:07.197Z,23.12
2022-11-21T03:57:34.655Z,23.08
2022-11-21T04:00:02.104Z,23.05
2022-11-21T04:02:32.067Z,23.06
2022-11-21T04:04:59.553Z,23.08
2022-11-21T04:07:27.431Z,23.07
2022-11-21T04:09:54.892Z,23.04
2022-11-21T04:12:22.456Z,23.07
2022-11-21T04:14:49.860Z,23.10
2022-11-21T04:17:17.266Z,23.03
2022-11-21T04:19:44.653Z,23.02
2022-11-21T04:22:12.118Z,23.06
2022-11-21T04:24:39.509Z,23.03
2022-11-21T04:27:07.129Z,23.11
2022-11-21T04:29:34.616Z,23.10
2022-11-21T04:32:02.055Z,23.05
2022-11-21T04:34:29.839Z,23.05
2022-11-21T04:36:57.488Z,23.06
2022-11-21T04:39:25.023Z,23.12
2022-11-21T04:41:52.461Z,23.13
2022-11-21T04:44:19.908Z,23.10
2022-11-21T04:46:47.318Z,23.11
2022-11-21T04:49:14.984Z,23.18
2022-11-21T04:51:42.441Z,23.18
2022-11-21T04:54:11.378Z,23.14
2022-11-21T04:56:38.864Z,23.16
2022-11-21T04:59:06.277Z,23.12
2022-11-21T05:01:33.791Z,23.17
2022-11-21T05:04:01.240Z,23.21
2022-11-21T05:06:28.703Z,23.13
2022-11-21T05:08:56.211Z,23.15
2022-11-21T05:11:42.614Z,23.14
2022-11-21T05:14:09.996Z,23.10
2022-11-21T05:16:37.435Z,23.15
2022-11-21T05:19:04.839Z,23.10
2022-11-21T05:21:32.238Z,23.08
2022-11-21T05:23:59.800Z,23.16
2022-11-21T05:26:27.282Z,23.19
2022-11-21T05:28:54.851Z,23.20
2022-11-21T05:31:22.257Z,23.20
2022-11-21T05:33:49.915Z,23.24
2022-11-21T05:36:17.378Z,23.23
2022-11-21T05:38:44.839Z,23.29
2022-11-21T05:41:12.291Z,23.25
2022-11-21T05:43:45.905Z,23.29
2022-11-21T05:46:15.848Z,23.25
2022-11-21T05:48:43.571Z,23.27
2022-11-21T05:51:11.770Z,23.29
2022-11-21T05:53:39.266Z,23.33
2022-11-21T05:56:09.321Z,23.34
2022-11-21T05:58:36.827Z,23.30
2022-11-21T06:01:05.272Z,23.30
2022-11-21T06:03:35.919Z,23.37
2022-11-21T06:06:10.787Z,23.39
2022-11-21T06:08:43.979Z,23.34
2022-11-21T06:11:13.962Z,23.39
2022-11-21T06:13:42.110Z,23.39
2022-11-21T06:16:11.997Z,23.42
2022-11-21T06:18:41.569Z,23.43
2022-11-21T06:21:20.760Z,23.41
2022-11-21T06:23:51.908Z,23.45
2022-11-21T06:26:21.799Z,23.44
2022-11-21T06:28:49.844Z,23.46
2022-11-21T06:31:22.710Z,23.41
2022-11-21T06:33:55.402Z,23.43
2022-11-21T06:36:23.253Z,23.48
2022-11-21T06:38:52.805Z,23.48
2022-11-21T06:41:23.608Z,23.49
2022-11-21T06:43:51.537Z,23.50
2022-11-21T06:46:19.303Z,23.51
2022-11-21T06:48:47.355Z,23.44
2022-11-21T06:51:22.716Z,23.53
2022-11-21T06:53:58.118Z,23.55
2022-11-21T06:56:27.527Z,23.55
2022-11-21T06:58:55.856Z,23.58
2022-11-21T07:01:24.569Z,23.53
2022-11-21T07:03:53.151Z,23.60
2022-11-21T07:06:20.918Z,23.60
2022-11-21T07:09:00.066Z,23.61
2022-11-21T07:11:35.892Z,23.61
2022-11-21T07:14:08.862Z,23.60
2022-11-21T07:16:36.850Z,23.51
2022-11-21T07:19:04.466Z,23.58
2022-11-21T07:21:31.900Z,23.62
2022-11-21T07:23:59.920Z,23.64
2022-11-21T07:26:27.328Z,23.65
2022-11-21T07:28:54.837Z,23.67
2022-11-21T07:31:22.318Z,23.66
2022-11-21T07:33:49.777Z,23.67
2022-11-21T07:36:17.183Z,23.67
2022-11-21T07:38:46.571Z,23.66
2022-11-21T07:41:14.025Z,23.67
2022-11-21T07:43:41.559Z,23.66
2022-11-21T07:46:09.145Z,23.66
2022-11-21T07:48:36.622Z,23.66
2022-11-21T07:51:05.325Z,23.64
2022-11-21T07:53:33.047Z,23.58
2022-11-21T07:56:00.839Z,23.67
2022-11-21T07:58:28.411Z,23.66
2022-11-21T08:00:56.110Z,23.66
2022-11-21T08:03:25.322Z,23.65
2022-11-21T08:05:52.761Z,23.70
2022-11-21T08:08:20.198Z,23.70
2022-11-21T08:10:47.911Z,23.69
2022-11-21T08:13:15.332Z,23.69
2022-11-21T08:15:42.889Z,23.68
2022-11-21T08:18:15.863Z,23.68
2022-11-21T08:20:43.265Z,23.69
2022-11-21T08:23:11.063Z,23.72
2022-11-21T08:25:39.829Z,23.70
2022-11-21T08:28:09.989Z,23.77
2022-11-21T08:30:38.208Z,23.71
2022-11-21T08:33:06.747Z,23.75
2022-11-21T08:35:38.085Z,23.78
2022-11-21T08:38:06.470Z,23.78
2022-11-21T08:40:35.146Z,23.71
2022-11-21T08:43:08.340Z,23.72
2022-11-21T08:45:37.687Z,23.74
2022-11-21T08:48:09.648Z,23.73
2022-11-21T08:50:37.071Z,23.73
2022-11-21T08:53:04.532Z,23.69
2022-11-21T08:55:32.063Z,23.65
2022-11-21T08:57:59.572Z,23.71
2022-11-21T09:00:27.246Z,23.71
2022-11-21T09:02:54.771Z,23.70
2022-11-21T09:05:22.289Z,23.70
2022-11-21T09:07:57.284Z,23.68
2022-11-21T09:10:25.982Z,23.66
2022-11-21T09:12:53.634Z,23.66
2022-11-21T09:15:39.617Z,23.63
2022-11-21T09:18:08.162Z,23.63
2022-11-21T09:20:40.997Z,23.64
2022-11-21T09:23:10.902Z,23.66
2022-11-21T09:25:38.644Z,23.66
2022-11-21T09:28:08.786Z,23.66
2022-11-21T09:30:36.983Z,23.65
2022-11-21T09:33:07.263Z,23.65
2022-11-21T09:35:34.859Z,23.66
2022-11-21T09:38:02.457Z,23.66
2022-11-21T09:40:31.401Z,23.67
2022-11-21T09:43:07.699Z,23.62
2022-11-21T09:45:45.888Z,23.65
2022-11-21T09:48:19.309Z,23.59
2022-11-21T09:50:53.983Z,23.62
2022-11-21T09:53:36.373Z,23.63
2022-11-21T09:56:13.989Z,23.60
2022-11-21T09:58:59.697Z,23.59
2022-11-21T10:01:29.347Z,23.66
2022-11-21T10:03:56.915Z,23.67
2022-11-21T10:06:31.926Z,23.62
2022-11-21T10:09:23.702Z,23.64
2022-11-21T10:12:12.668Z,23.65
2022-11-21T10:15:22.002Z,23.62
2022-11-21T10:18:24.706Z,23.60
2022-11-21T10:21:24.304Z,23.58
2022-11-21T10:23:57.436Z,23.61
2022-11-21T10:26:54.706Z,23.58
2022-11-21T10:29:29.015Z,23.61
2022-11-21T10:32:01.674Z,23.57
2022-11-21T10:34:37.838Z,23.62
2022-11-21T10:37:15.576Z,23.57
2022-11-21T10:39:50.334Z,23.57
2022-11-21T10:42:34.903Z,23.58
2022-11-21T10:45:22.941Z,23.60
2022-11-21T10:47:52.293Z,23.62
2022-11-21T10:50:26.152Z,23.65
2022-11-21T10:53:02.816Z,23.62
2022-11-21T10:55:30.381Z,23.66
2022-11-21T10:57:57.778Z,23.65
2022-11-21T11:00:26.936Z,23.65
2022-11-21T11:03:06.474Z,23.63
2022-11-21T11:05:37.143Z,23.66
2022-11-21T11:08:13.091Z,23.63
2022-11-21T11:11:04.899Z,23.69
2022-11-21T11:13:51.712Z,23.68
2022-11-21T11:16:22.400Z,23.65
2022-11-21T11:19:02.040Z,23.66
2022-11-21T11:21:50.841Z,23.68
2022-11-21T11:24:20.295Z,23.66
2022-11-21T11:26:48.713Z,23.62
2022-11-21T11:29:25.057Z,23.62
2022-11-21T11:31:55.352Z,23.62
2022-11-21T11:34:30.709Z,23.65
2022-11-21T11:37:25.960Z,23.64
2022-11-21T11:40:21.186Z,23.64
2022-11-21T11:43:35.467Z,23.63
2022-11-21T11:46:40.381Z,23.65
2022-11-21T11:49:20.758Z,23.63
2022-11-21T11:51:54.146Z,23.61
2022-11-21T11:54:34.464Z,23.57
2022-11-21T11:57:04.605Z,23.56
2022-11-21T11:59:38.981Z,23.56
2022-11-21T12:02:12.319Z,23.59
2022-11-21T12:04:51.023Z,23.52
2022-11-21T12:10:27.650Z,23.58
2022-11-21T12:13:14.105Z,23.52
2022-11-21T12:15:51.245Z,23.56
2022-11-21T12:18:18.615Z,23.56
2022-11-21T12:21:24.469Z,23.52
2022-11-21T12:23:59.000Z,23.50
2022-11-21T12:26:29.441Z,23.54
2022-11-21T12:29:34.924Z,23.53
2022-11-21T12:32:49.095Z,23.55
2022-11-21T12:35:35.440Z,23.48
2022-11-21T12:38:39.470Z,23.47
2022-11-21T12:41:35.450Z,23.45
2022-11-21T12:44:35.685Z,23.47
2022-11-21T12:47:57.024Z,23.48
2022-11-21T12:50:52.295Z,23.49
2022-11-21T12:53:55.073Z,23.48
2022-11-21T12:56:49.753Z,23.44
2022-11-21T12:59:19.655Z,23.44
2022-11-21T13:01:52.953Z,23.45
2022-11-21T13:04:28.985Z,23.37
2022-11-21T13:06:57.891Z,23.45
2022-11-21T13:09:28.297Z,23.50
2022-11-21T13:12:16.151Z,23.52
2022-11-21T13:14:58.543Z,23.57
2022-11-21T13:17:25.970Z,23.60
2022-11-21T13:19:56.535Z,23.59
2022-11-21T13:22:36.091Z,23.54
2022-11-21T13:25:24.888Z,23.60
2022-11-21T13:27:52.723Z,23.58
2022-11-21T13:30:22.571Z,23.59
2022-11-21T13:32:52.214Z,23.64
2022-11-21T13:35:19.659Z,23.66
2022-11-21T13:37:49.928Z,23.66
2022-11-21T13:40:26.375Z,23.70
2022-11-21T13:45:59.216Z,23.71
2022-11-21T13:48:36.404Z,23.72
2022-11-21T13:51:25.705Z,23.72
2022-11-21T13:54:27.317Z,23.75
2022-11-21T13:57:27.478Z,23.76
2022-11-21T14:00:20.484Z,23.75
2022-11-21T14:03:12.027Z,23.74
2022-11-21T14:06:13.810Z,23.71
2022-11-21T14:08:41.308Z,23.74
2022-11-21T14:11:30.509Z,23.72
2022-11-21T14:13:58.217Z,23.69
2022-11-21T14:16:56.967Z,23.71
2022-11-21T14:19:27.407Z,23.77
2022-11-21T14:21:55.474Z,23.73
2022-11-21T14:24:23.349Z,23.73
2022-11-21T14:26:52.852Z,23.74
2022-11-21T14:29:39.551Z,23.74
2022-11-21T14:32:14.619Z,23.71
2022-11-21T14:34:42.258Z,23.70
2022-11-21T14:37:13.616Z,23.70
2022-11-21T14:39:44.833Z,23.69
2022-11-21T14:42:15.675Z,23.73
2022-11-21T14:44:43.716Z,23.73
2022-11-21T14:47:23.486Z,23.71
2022-11-21T14:49:55.688Z,23.75
2022-11-21T14:52:32.893Z,23.72
2022-11-21T14:57:52.232Z,23.72
2022-11-21T15:03:23.885Z,23.68
2022-11-21T15:06:04.434Z,23.68
2022-11-21T15:11:26.124Z,23.70
2022-11-21T15:14:17.830Z,23.71
2022-11-21T15:16:47.983Z,23.70
2022-11-21T15:19:27.785Z,23.68
2022-11-21T15:21:58.296Z,23.67
2022-11-21T15:24:35.914Z,23.63
2022-11-21T15:27:28.873Z,23.66
2022-11-21T15:30:03.376Z,23.68
2022-11-21T15:32:31.092Z,23.71
2022-11-21T15:34:58.609Z,23.69
2022-11-21T15:37:27.897Z,23.61
2022-11-21T15:39:55.400Z,23.68
2022-11-21T15:42:31.898Z,23.65
2022-11-21T15:45:04.704Z,23.61
2022-11-21T15:47:32.225Z,23.55
2022-11-21T15:49:59.996Z,23.52
2022-11-21T15:52:29.436Z,23.53
2022-11-21T15:54:56.839Z,23.57
2022-11-21T15:57:24.295Z,23.50
2022-11-21T15:59:53.112Z,23.53
2022-11-21T16:02:20.713Z,23.49
2022-11-21T16:04:49.418Z,23.48
2022-11-21T16:07:17.046Z,23.49
2022-11-21T16:09:45.953Z,23.45
2022-11-21T16:12:13.384Z,23.44
2022-11-21T16:14:40.905Z,23.50
2022-11-21T16:17:08.476Z,23.42
2022-11-21T16:19:35.975Z,23.43
2022-11-21T16:22:03.432Z,23.38
2022-11-21T16:24:30.864Z,23.38
2022-11-21T16:26:58.359Z,23.35
2022-11-21T16:29:25.821Z,23.36
2022-11-21T16:31:55.840Z,23.37
2022-11-21T16:34:23.334Z,23.35
2022-11-21T16:36:51.029Z,23.35
2022-11-21T16:39:18.766Z,23.36
2022-11-21T16:41:47.451Z,23.40
2022-11-21T16:44:16.180Z,23.34
2022-11-21T16:46:47.213Z,23.37
2022-11-21T16:49:15.276Z,23.35
2022-11-21T16:51:42.799Z,23.35
2022-11-21T16:54:10.215Z,23.38
2022-11-21T16:56:37.629Z,23.40
2022-11-21T16:59:05.083Z,23.33
2022-11-21T17:01:32.589Z,23.30
2022-11-21T17:04:00.136Z,23.32
2022-11-21T17:06:30.035Z,23.32
2022-11-21T17:09:01.013Z,23.29
2022-11-21T17:11:31.259Z,23.30
2022-11-21T17:14:01.821Z,23.29
2022-11-21T17:16:29.961Z,23.32
2022-11-21T17:18:59.728Z,23.30
2022-11-21T17:21:28.372Z,23.31
2022-11-21T17:23:56.239Z,23.31
2022-11-21T17:26:25.957Z,23.31
2022-11-21T17:28:55.369Z,23.32
2022-11-21T17:31:23.285Z,23.36
2022-11-21T17:33:51.883Z,23.31
2022-11-21T17:36:21.229Z,23.35
2022-11-21T17:38:49.146Z,23.37
2022-11-21T17:41:18.783Z,23.39
2022-11-21T17:43:47.304Z,23.34
2022-11-21T17:46:19.122Z,23.35
2022-11-21T17:48:54.659Z,23.37
2022-11-21T17:51:26.235Z,23.44
2022-11-21T17:53:54.154Z,23.47
2022-11-21T17:56:26.864Z,23.49
2022-11-21T17:58:55.110Z,23.47
2022-11-21T18:01:23.131Z,23.51
2022-11-21T18:03:54.715Z,23.44
2022-11-21T18:06:22.675Z,23.50
2022-11-21T18:08:50.160Z,23.50
2022-11-21T18:11:23.701Z,23.53
2022-11-21T18:13:51.212Z,23.55
2022-11-21T18:16:22.199Z,23.59
2022-11-21T18:18:50.701Z,23.58
2022-11-21T18:21:19.448Z,23.58
2022-11-21T18:23:47.301Z,23.55
2022-11-21T18:26:19.956Z,23.58
2022-11-21T18:28:57.254Z,23.65
2022-11-21T18:31:37.499Z,23.65
2022-11-21T18:34:06.589Z,23.67
2022-11-21T18:36:34.069Z,23.58
2022-11-21T18:39:08.952Z,23.59
2022-11-21T18:41:41.126Z,23.59
2022-11-21T18:44:08.682Z,23.57
2022-11-21T18:46:37.264Z,23.62
2022-11-21T18:49:07.326Z,23.59
2022-11-21T18:51:36.415Z,23.60
2022-11-21T18:54:11.854Z,23.60
2022-11-21T18:56:39.800Z,23.67
2022-11-21T18:59:07.859Z,23.63
2022-11-21T19:01:37.594Z,23.62
2022-11-21T19:04:05.673Z,23.65
2022-11-21T19:06:33.398Z,23.72
2022-11-21T19:09:00.814Z,23.77
2022-11-21T19:11:29.697Z,23.79
2022-11-21T19:13:59.397Z,23.81
2022-11-21T19:16:28.570Z,23.82
2022-11-21T19:21:43.996Z,23.75
2022-11-21T19:24:19.422Z,23.75
2022-11-21T19:26:47.167Z,23.70
2022-11-21T19:29:14.549Z,23.70
2022-11-21T19:31:45.772Z,23.67
2022-11-21T19:34:14.977Z,23.68
2022-11-21T19:36:42.883Z,23.79
2022-11-21T19:39:11.042Z,23.74
2022-11-21T19:41:38.642Z,23.79
2022-11-21T19:44:06.229Z,23.71
2022-11-21T19:46:36.765Z,23.70
2022-11-21T19:49:05.701Z,23.73
2022-11-21T19:51:39.108Z,23.63
2022-11-21T19:54:07.690Z,23.63
2022-11-21T19:56:36.138Z,23.58
2022-11-21T19:59:04.294Z,23.62
2022-11-21T20:01:33.881Z,23.59
2022-11-21T20:04:03.510Z,23.57
2022-11-21T20:06:32.097Z,23.63
2022-11-21T20:09:06.877Z,23.61
2022-11-21T20:11:35.258Z,23.54
2022-11-21T20:14:03.090Z,23.47
2022-11-21T20:16:35.500Z,23.58
2022-11-21T20:19:07.047Z,23.57
2022-11-21T20:21:35.017Z,23.58
2022-11-21T20:24:03.647Z,23.50
2022-11-21T20:26:31.905Z,23.57
2022-11-21T20:28:59.669Z,23.53
2022-11-21T20:31:32.564Z,23.65
2022-11-21T20:34:02.829Z,23.68
2022-11-21T20:36:32.974Z,23.69
2022-11-21T20:39:31.773Z,23.64
2022-11-21T20:41:59.868Z,23.64
2022-11-21T20:45:11.643Z,23.67
2022-11-21T20:47:16.684Z,23.66
2022-11-21T20:49:44.040Z,23.67
2022-11-21T20:54:58.766Z,23.67
2022-11-21T20:57:27.639Z,23.68
2022-11-21T20:59:55.082Z,23.69
2022-11-21T21:02:22.499Z,23.70
2022-11-21T21:04:49.959Z,23.66
2022-11-21T21:07:17.527Z,23.68
2022-11-21T21:09:45.049Z,23.60
2022-11-21T21:12:12.507Z,23.67
2022-11-21T21:14:39.923Z,23.64
2022-11-21T21:17:07.405Z,23.65
2022-11-21T21:19:34.949Z,23.65
2022-11-21T21:22:02.378Z,23.64
2022-11-21T21:24:29.829Z,23.63
2022-11-21T21:26:57.312Z,23.63
2022-11-21T21:29:24.843Z,23.59
2022-11-21T21:31:53.056Z,23.63
2022-11-21T21:34:21.776Z,23.62
2022-11-21T21:36:49.889Z,23.59
2022-11-21T21:39:17.520Z,23.61
2022-11-21T21:41:46.706Z,23.59
2022-11-21T21:44:15.779Z,23.59
2022-11-21T21:46:43.935Z,23.59
2022-11-21T21:49:11.767Z,23.58
2022-11-21T21:51:40.010Z,23.53
2022-11-21T21:54:07.659Z,23.53
2022-11-21T21:56:35.110Z,23.53
2022-11-21T21:59:02.600Z,23.49
2022-11-21T22:01:32.227Z,23.50
2022-11-21T22:04:04.878Z,23.53
2022-11-21T22:06:36.049Z,23.44
2022-11-21T22:09:03.959Z,23.46
2022-11-21T22:11:35.535Z,23.49
2022-11-21T22:14:05.545Z,23.46
2022-11-21T22:16:33.359Z,23.39
2022-11-21T22:19:01.049Z,23.42
2022-11-21T22:21:32.611Z,23.43
2022-11-21T22:26:53.330Z,23.39
2022-11-21T22:29:20.790Z,23.42
2022-11-21T22:31:48.318Z,23.35
2022-11-21T22:34:15.917Z,23.43
2022-11-21T22:36:44.689Z,23.35
2022-11-21T22:39:12.153Z,23.37
2022-11-21T22:41:39.751Z,23.37
2022-11-21T22:44:07.164Z,23.37
2022-11-21T22:46:35.162Z,23.34
2022-11-21T22:49:03.618Z,23.37
2022-11-21T22:51:31.035Z,23.33
2022-11-21T22:53:58.505Z,23.33
2022-11-21T22:56:26.592Z,23.31
2022-11-21T22:58:54.362Z,23.29
2022-11-21T23:01:24.839Z,23.35
2022-11-21T23:03:53.108Z,23.28
2022-11-21T23:06:23.642Z,23.30
2022-11-21T23:08:52.840Z,23.25
2022-11-21T23:11:23.181Z,23.26
2022-11-21T23:13:51.952Z,23.33
2022-11-21T23:16:19.802Z,23.36
2022-11-21T23:18:47.809Z,23.27
2022-11-21T23:21:15.382Z,23.34
2022-11-21T23:23:44.002Z,23.38
2022-11-21T23:26:11.840Z,23.34
2022-11-21T23:28:39.288Z,23.34
2022-11-21T23:31:06.730Z,23.31
2022-11-21T23:33:34.262Z,23.28
2022-11-21T23:36:01.819Z,23.29
2022-11-21T23:38:29.271Z,23.24
2022-11-21T23:40:56.731Z,23.24
2022-11-21T23:43:24.779Z,23.34
2022-11-21T23:45:53.631Z,23.33
2022-11-21T23:48:21.820Z,23.29
2022-11-21T23:50:51.313Z,23.30
2022-11-21T23:53:22.445Z,23.22
2022-11-21T23:55:50.136Z,23.24
2022-11-21T23:58:17.764Z,23.22
